Quick Links (Output Below):   Max & Min Temps   /   Climate Reports   /   Zone Forecasts
River Forecasts   /   Forestry Forecasts   /   Aviation Forecasts   /   Radars   /   Features

Terminal Aerodrome Forecast (Little Rock)

Pick a Site:
Arkadelphia | El Dorado | Fayetteville | Fort Smith | Harrison | Highfill | Hot Springs | Jonesboro
Little Rock | Monticello | Mountain Home | Pine Bluff | Texarkana
 Forecast 

KLIT 030749Z 0308/0406 VRB03KT 1/4SM FG OVC004
     FM031400 21005KT 4SM BR VCSH OVC008
     FM031800 21009KT 5SM BR VCSH OVC004
      TEMPO 0320/0324 3SM -RA=


 Latest METARs (Observations) 
How to Decode METARs
11Z KLIT 031053Z 00000KT 1/2SM -RA FG OVC004 02/01 A3009 RMK AO2 RAB48
         CIG 002V006 SLP193 VIS W 1 P0000 T00170006 RVRNO
         
10Z KLIT 030953Z 00000KT 1/4SM FG OVC002 02/01 A3011 RMK AO2 SLP199
         VIS W 1/2 T00170006 RVRNO
         
09Z KLIT 030853Z 16004KT 1/4SM FG OVC002 02/01 A3012 RMK AO2 SLP204
         VIS W 1/2 T00170006 58030 RVRNO
         
08Z KLIT 030753Z 00000KT 1/4SM FG OVC002 02/00 A3016 RMK AO2 SLP216
         VIS W 1/2 T00170000 RVRNO
         
07Z KLIT 030653Z 00000KT 2 1/2SM BR OVC004 02/00 A3019 RMK AO2 SLP229
         T00170000
         
06Z KLIT 030553Z 00000KT 2 1/2SM BR OVC004 02/00 A3021 RMK AO2 SLP234
         T00170000 10028 20017 400440011 58028
         
05Z KLIT 030453Z 06004KT 2 1/2SM BR OVC006 02/00 A3024 RMK AO2 SLP246
         SFC VIS 4 T00170000
         
04Z KLIT 030353Z 07004KT 2 1/2SM BR OVC005 02/00 A3027 RMK AO2 SLP255
         T00170000
         
03Z KLIT 030253Z 09005KT 5SM BR BKN009 OVC012 02/M01 A3029 RMK AO2
         SLP262 T00171006 58001
         
02Z KLIT 030153Z 07007KT 8SM OVC012 02/M01 A3030 RMK AO2 SLP266
         T00221006
         
***** Today's Observations (Above) *****


Back to Main Page
http://www.srh.noaa.gov/lzk/qfcst.php

USA.gov is the U.S. government's official web portal to all federal, state and local government web resources and services.